DEMMD EDDH-EDDH
Flight info
| Callsign | DEMMD |
|---|---|
| Flight time | N/A |
| Altitude | |
| Route | |
| Aircraft | SR22 |
Departure
| Time | 2026-04-26 16:51 |
|---|---|
| Airport | Hamburg Helmut Schmidt Airport (EDDH) |
Arrival
| Time | N/A |
|---|---|
| Airport | Hamburg Helmut Schmidt Airport (EDDH) |
| Time | Latitude | Longitude | Altitude | Speed | Heading |
|---|---|---|---|---|---|
| 2026-04-26 16:39 | 53.63111 | 10.00064 | 44 ft | 0 kts | 140° |
| 2026-04-26 16:44 | 53.63114 | 10.00067 | 44 ft | 8 kts | 297° |
| 2026-04-26 16:44 | 53.63118 | 10.00053 | 44 ft | 0 kts | 340° |
| 2026-04-26 16:44 | 53.63134 | 10.00046 | 44 ft | 7 kts | 359° |
| 2026-04-26 16:45 | 53.63198 | 10.00093 | 44 ft | 14 kts | 34° |
| 2026-04-26 16:45 | 53.63199 | 10.00183 | 44 ft | 9 kts | 175° |
| 2026-04-26 16:45 | 53.63124 | 10.00191 | 44 ft | 13 kts | 176° |
| 2026-04-26 16:45 | 53.63020 | 10.00134 | 44 ft | 19 kts | 214° |
| 2026-04-26 16:46 | 53.62926 | 10.00015 | 44 ft | 11 kts | 239° |
| 2026-04-26 16:46 | 53.62902 | 9.99932 | 44 ft | 6 kts | 243° |
| 2026-04-26 16:46 | 53.62896 | 9.99910 | 44 ft | 0 kts | 244° |
| 2026-04-26 16:47 | 53.62893 | 9.99901 | 44 ft | 5 kts | 244° |
| 2026-04-26 16:47 | 53.62865 | 9.99793 | 43 ft | 12 kts | 260° |
| 2026-04-26 16:47 | 53.62887 | 9.99727 | 43 ft | 0 kts | 327° |
| 2026-04-26 16:49 | 53.62949 | 9.99666 | 43 ft | 40 kts | 333° |
| 2026-04-26 16:50 | 53.63327 | 9.99340 | 45 ft | 79 kts | 334° |
| 2026-04-26 16:50 | 53.63911 | 9.98843 | 50 ft | 108 kts | 333° |
| 2026-04-26 16:50 | 53.64597 | 9.98696 | 416 ft | 104 kts | 41° |
| 2026-04-26 16:50 | 53.64880 | 10.00036 | 636 ft | 127 kts | 75° |
| 2026-04-26 16:51 | 53.65172 | 10.01424 | 795 ft | 129 kts | 68° |
| 2026-04-26 16:51 | 53.65283 | 10.02925 | 944 ft | 129 kts | 107° |
| 2026-04-26 16:51 | 53.64576 | 10.03671 | 944 ft | 139 kts | 201° |
| 2026-04-26 16:51 | 53.64140 | 10.02285 | 522 ft | 125 kts | 261° |
| 2026-04-26 16:52 | 53.63913 | 10.01100 | 287 ft | 95 kts | 256° |
| 2026-04-26 16:52 | 53.63754 | 10.00470 | 170 ft | 85 kts | 251° |
| 2026-04-26 16:52 | 53.63353 | 9.99459 | 46 ft | 69 kts | 244° |
| 2026-04-26 16:52 | 53.63021 | 9.98686 | 201 ft | 93 kts | 238° |
| 2026-04-26 16:53 | 53.62603 | 9.97795 | 531 ft | 109 kts | 236° |
| 2026-04-26 16:53 | 53.62030 | 9.96736 | 859 ft | 139 kts | 229° |
| 2026-04-26 16:53 | 53.61324 | 9.95554 | 910 ft | 141 kts | 230° |
| 2026-04-26 16:53 | 53.60588 | 9.94486 | 943 ft | 141 kts | 218° |
| 2026-04-26 16:54 | 53.59629 | 9.94091 | 1022 ft | 147 kts | 180° |
| 2026-04-26 16:54 | 53.58637 | 9.94586 | 1009 ft | 153 kts | 152° |
| 2026-04-26 16:54 | 53.57753 | 9.95612 | 1037 ft | 153 kts | 142° |
| 2026-04-26 16:54 | 53.56918 | 9.96643 | 1175 ft | 146 kts | 144° |
| 2026-04-26 16:55 | 53.56172 | 9.97797 | 1149 ft | 150 kts | 122° |
| 2026-04-26 16:55 | 53.55688 | 9.99380 | 1019 ft | 160 kts | 104° |
| 2026-04-26 16:55 | 53.55964 | 10.00920 | 987 ft | 143 kts | 359° |
| 2026-04-26 16:55 | 53.56045 | 9.99665 | 833 ft | 153 kts | 228° |
| 2026-04-26 16:56 | 53.54589 | 9.97346 | 815 ft | 140 kts | 265° |
| 2026-04-26 16:56 | 53.54541 | 9.95681 | 710 ft | 144 kts | 259° |
| 2026-04-26 16:56 | 53.53781 | 9.94996 | 886 ft | 148 kts | 153° |
| 2026-04-26 16:57 | 53.53669 | 9.96544 | 836 ft | 154 kts | 76° |
| 2026-04-26 16:57 | 53.53552 | 9.98391 | 766 ft | 162 kts | 86° |
| 2026-04-26 16:57 | 53.54968 | 10.00022 | 761 ft | 152 kts | 322° |
| 2026-04-26 16:58 | 53.55432 | 9.98557 | 838 ft | 151 kts | 265° |
| 2026-04-26 16:58 | 53.55290 | 9.97404 | 780 ft | 152 kts | 262° |
| 2026-04-26 16:58 | 53.54485 | 9.93560 | 695 ft | 147 kts | 217° |
| 2026-04-26 16:59 | 53.53481 | 9.93622 | 693 ft | 151 kts | 154° |
| 2026-04-26 16:59 | 53.52541 | 9.96355 | 663 ft | 146 kts | 62° |
| 2026-04-26 17:00 | 53.53970 | 9.98785 | 699 ft | 150 kts | 28° |
| 2026-04-26 17:00 | 53.54661 | 9.96950 | 707 ft | 149 kts | 249° |
| 2026-04-26 17:00 | 53.54239 | 9.95325 | 481 ft | 160 kts | 251° |
| 2026-04-26 17:01 | 53.54031 | 9.93602 | 581 ft | 147 kts | 269° |
| 2026-04-26 17:01 | 53.54049 | 9.91942 | 680 ft | 139 kts | 275° |
| 2026-04-26 17:01 | 53.54110 | 9.90263 | 622 ft | 142 kts | 276° |
| 2026-04-26 17:01 | 53.54208 | 9.88664 | 684 ft | 134 kts | 278° |
| 2026-04-26 17:02 | 53.54331 | 9.87120 | 613 ft | 137 kts | 282° |
| 2026-04-26 17:02 | 53.54483 | 9.85515 | 484 ft | 140 kts | 280° |
| 2026-04-26 17:02 | 53.54670 | 9.83950 | 515 ft | 133 kts | 285° |
| 2026-04-26 17:02 | 53.54906 | 9.82479 | 584 ft | 129 kts | 286° |
| 2026-04-26 17:03 | 53.55166 | 9.81006 | 556 ft | 130 kts | 287° |
| 2026-04-26 17:03 | 53.55415 | 9.79568 | 597 ft | 126 kts | 285° |
| 2026-04-26 17:03 | 53.55607 | 9.78158 | 682 ft | 124 kts | 283° |
| 2026-04-26 17:03 | 53.55776 | 9.76717 | 778 ft | 122 kts | 283° |
| 2026-04-26 17:04 | 53.55935 | 9.75264 | 732 ft | 129 kts | 283° |
| 2026-04-26 17:04 | 53.56074 | 9.73807 | 785 ft | 132 kts | 281° |
| 2026-04-26 17:04 | 53.56250 | 9.72025 | 795 ft | 185 kts | 281° |
| 2026-04-26 17:04 | 53.56508 | 9.69776 | 920 ft | 195 kts | 283° |
| 2026-04-26 17:05 | 53.56818 | 9.67577 | 1082 ft | 188 kts | 288° |
| 2026-04-26 17:05 | 53.57286 | 9.65538 | 1098 ft | 192 kts | 295° |
| 2026-04-26 17:05 | 53.57938 | 9.63525 | 986 ft | 195 kts | 302° |
| 2026-04-26 17:05 | 53.58633 | 9.61605 | 1153 ft | 188 kts | 303° |